createdAt,value
2023-03-26T00:02:50.307Z,7.63
2023-03-26T00:07:52.259Z,7.52
2023-03-26T00:12:54.163Z,7.58
2023-03-26T00:17:56.087Z,7.59
2023-03-26T00:22:58.006Z,7.56
2023-03-26T00:27:59.957Z,7.61
2023-03-26T00:33:05.098Z,7.57
2023-03-26T00:38:07.074Z,7.59
2023-03-26T00:43:08.995Z,7.54
2023-03-26T00:48:10.885Z,7.52
2023-03-26T00:53:13.453Z,7.53
2023-03-26T00:58:15.228Z,7.38
2023-03-26T01:03:27.504Z,7.40
2023-03-26T01:08:37.449Z,7.38
2023-03-26T01:13:39.735Z,7.38
2023-03-26T01:18:41.626Z,7.35
2023-03-26T01:23:46.060Z,7.31
2023-03-26T01:28:47.966Z,7.30
2023-03-26T01:33:54.671Z,7.23
2023-03-26T01:39:10.189Z,7.20
2023-03-26T01:44:53.541Z,7.18
2023-03-26T01:49:55.364Z,7.19
2023-03-26T01:54:57.257Z,7.18
2023-03-26T02:00:02.844Z,7.06
2023-03-26T02:05:25.240Z,6.99
2023-03-26T02:10:32.155Z,6.99
2023-03-26T02:20:53.035Z,6.78
2023-03-26T02:25:55.163Z,6.80
2023-03-26T02:30:57.307Z,6.82
2023-03-26T02:35:59.678Z,6.85
2023-03-26T02:41:01.908Z,6.65
2023-03-26T02:46:04.002Z,6.63
2023-03-26T02:51:06.138Z,6.60
2023-03-26T02:56:09.273Z,6.60
2023-03-26T03:01:11.219Z,6.51
2023-03-26T03:06:13.167Z,6.38
2023-03-26T03:11:16.815Z,6.34
2023-03-26T03:16:37.014Z,6.38
2023-03-26T03:21:39.143Z,6.34
2023-03-26T03:26:41.063Z,6.33
2023-03-26T03:31:42.972Z,6.22
2023-03-26T03:36:44.853Z,6.19
2023-03-26T03:41:46.815Z,6.12
2023-03-26T03:46:48.764Z,6.18
2023-03-26T03:51:50.705Z,6.17
2023-03-26T03:57:30.042Z,6.19
2023-03-26T04:02:31.975Z,6.25
2023-03-26T04:07:33.836Z,6.25
2023-03-26T04:12:35.727Z,6.37
2023-03-26T04:17:38.362Z,6.35
2023-03-26T04:22:40.786Z,6.31
2023-03-26T04:27:42.688Z,6.32
2023-03-26T04:32:45.020Z,6.30
2023-03-26T04:37:46.923Z,6.32
2023-03-26T04:42:48.783Z,6.45
2023-03-26T04:47:50.989Z,6.42
2023-03-26T04:52:53.337Z,6.56
2023-03-26T04:58:14.745Z,6.56
2023-03-26T05:03:16.655Z,6.64
2023-03-26T05:08:18.615Z,6.70
2023-03-26T05:13:20.553Z,6.62
2023-03-26T05:18:22.479Z,6.82
2023-03-26T05:24:01.889Z,6.84
2023-03-26T05:29:04.280Z,6.94
2023-03-26T05:34:06.161Z,6.92
2023-03-26T05:39:08.236Z,6.80
2023-03-26T05:44:10.146Z,6.92
2023-03-26T05:49:18.601Z,6.93
2023-03-26T06:00:05.209Z,7.01
2023-03-26T06:05:07.359Z,6.97
2023-03-26T06:10:09.631Z,7.01
2023-03-26T06:15:49.230Z,7.06
2023-03-26T06:21:09.719Z,7.11
2023-03-26T06:26:30.044Z,7.20
2023-03-26T06:31:31.912Z,7.20
2023-03-26T06:36:33.840Z,7.18
2023-03-26T06:41:35.790Z,7.24
2023-03-26T06:46:37.804Z,7.27
2023-03-26T06:51:58.009Z,7.31
2023-03-26T06:57:00.959Z,7.23
2023-03-26T07:02:02.868Z,7.24
2023-03-26T07:07:04.959Z,7.29
2023-03-26T07:12:07.036Z,7.40
2023-03-26T07:17:09.110Z,7.53
2023-03-26T07:27:45.530Z,7.69
2023-03-26T07:33:03.686Z,7.75
2023-03-26T07:38:17.345Z,7.79
2023-03-26T07:43:28.787Z,7.58
2023-03-26T07:48:39.926Z,7.41
2023-03-26T07:53:42.051Z,7.32
2023-03-26T07:58:55.548Z,7.13
2023-03-26T08:04:24.257Z,7.04
2023-03-26T08:09:49.407Z,7.06
2023-03-26T08:20:31.225Z,6.99
2023-03-26T08:25:52.078Z,6.64
2023-03-26T08:30:54.819Z,6.53
2023-03-26T08:35:57.090Z,6.48
2023-03-26T08:41:11.034Z,6.46
2023-03-26T08:46:46.880Z,6.51
2023-03-26T08:51:52.175Z,6.50
2023-03-26T08:57:11.337Z,6.55
2023-03-26T09:02:19.942Z,6.38
2023-03-26T09:07:46.562Z,6.35
2023-03-26T09:13:26.791Z,6.22
2023-03-26T09:24:46.504Z,6.40
2023-03-26T09:30:06.131Z,6.56
2023-03-26T09:35:14.788Z,6.39
2023-03-26T09:40:17.274Z,6.32
2023-03-26T09:51:22.103Z,6.28
2023-03-26T09:56:45.229Z,6.26
2023-03-26T10:02:10.151Z,6.18
2023-03-26T10:07:37.513Z,6.40
2023-03-26T10:12:41.118Z,6.37
2023-03-26T10:18:27.445Z,6.43
2023-03-26T10:23:40.410Z,6.37
2023-03-26T10:29:03.719Z,6.47
2023-03-26T10:34:36.601Z,6.57
2023-03-26T10:39:54.875Z,6.54
2023-03-26T10:45:21.888Z,6.53
2023-03-26T10:50:46.946Z,6.61
2023-03-26T10:55:52.505Z,6.74
2023-03-26T11:01:01.563Z,6.74
2023-03-26T11:06:16.651Z,6.73
2023-03-26T11:11:32.083Z,6.82
2023-03-26T11:16:46.091Z,6.86
2023-03-26T11:21:53.818Z,6.91
2023-03-26T11:27:15.521Z,6.90
2023-03-26T11:32:22.761Z,7.03
2023-03-26T11:37:31.142Z,6.97
2023-03-26T11:42:33.117Z,7.04
2023-03-26T11:48:01.504Z,7.31
2023-03-26T11:53:11.063Z,7.47
2023-03-26T11:58:34.422Z,7.48
2023-03-26T12:03:36.372Z,7.60
2023-03-26T12:08:41.200Z,7.77
2023-03-26T12:13:55.269Z,7.93
2023-03-26T12:19:05.224Z,7.84
2023-03-26T12:24:26.951Z,7.81
2023-03-26T12:29:29.668Z,7.86
2023-03-26T12:34:33.663Z,7.86
2023-03-26T12:40:10.313Z,7.89
2023-03-26T12:45:05.522Z,7.91
2023-03-26T12:50:12.247Z,7.84
2023-03-26T12:55:27.678Z,7.89
2023-03-26T13:01:04.931Z,7.85
2023-03-26T13:06:59.333Z,7.93
2023-03-26T13:12:08.329Z,7.93
2023-03-26T13:17:37.262Z,7.94
2023-03-26T13:22:52.239Z,7.91
2023-03-26T13:28:19.190Z,7.90
2023-03-26T13:34:14.196Z,7.95
2023-03-26T13:39:48.122Z,7.96
2023-03-26T13:45:04.518Z,7.83
2023-03-26T13:50:14.193Z,7.94
2023-03-26T13:55:18.794Z,7.84
2023-03-26T14:00:24.589Z,7.91
2023-03-26T14:05:31.105Z,7.75
2023-03-26T14:10:36.188Z,7.75
2023-03-26T14:15:42.198Z,7.59
2023-03-26T14:21:21.026Z,7.61
2023-03-26T14:27:00.986Z,7.50
2023-03-26T14:32:41.367Z,7.47
2023-03-26T14:37:48.121Z,7.43
2023-03-26T14:43:16.961Z,7.34
2023-03-26T14:48:36.877Z,7.32
2023-03-26T14:53:42.286Z,7.30
2023-03-26T14:59:02.137Z,7.31
2023-03-26T15:04:25.653Z,7.27
2023-03-26T15:09:59.918Z,7.26
2023-03-26T15:15:20.120Z,7.19
2023-03-26T15:20:24.812Z,7.18
2023-03-26T15:25:32.374Z,7.22
2023-03-26T15:30:55.845Z,7.19
2023-03-26T15:36:00.832Z,7.22
2023-03-26T15:41:17.914Z,7.19
2023-03-26T15:46:38.642Z,7.15
2023-03-26T15:51:57.689Z,7.22
2023-03-26T15:57:31.333Z,7.13
2023-03-26T16:02:57.328Z,7.06
2023-03-26T16:08:04.744Z,7.14
2023-03-26T16:13:30.905Z,7.18
2023-03-26T16:19:17.112Z,7.14
2023-03-26T16:24:24.335Z,7.16
2023-03-26T16:29:27.137Z,7.16
2023-03-26T16:34:37.037Z,7.10
2023-03-26T16:39:40.736Z,7.12
2023-03-26T16:45:30.542Z,7.06
2023-03-26T16:50:35.267Z,7.06
2023-03-26T16:56:03.028Z,7.04
2023-03-26T17:01:09.054Z,6.96
2023-03-26T17:06:58.388Z,7.00
2023-03-26T17:12:08.873Z,7.03
2023-03-26T17:17:37.827Z,6.94
2023-03-26T17:22:50.357Z,6.98
2023-03-26T17:27:58.010Z,7.03
2023-03-26T17:33:11.997Z,6.93
2023-03-26T17:38:17.023Z,6.98
2023-03-26T17:43:43.577Z,6.98
2023-03-26T17:48:45.622Z,6.95
2023-03-26T17:53:47.504Z,6.91
2023-03-26T17:58:53.360Z,6.82
2023-03-26T18:03:56.228Z,6.76
2023-03-26T18:09:11.377Z,6.73
2023-03-26T18:14:45.110Z,6.70
2023-03-26T18:19:54.590Z,6.57
2023-03-26T18:25:00.404Z,6.70
2023-03-26T18:30:04.265Z,6.68
2023-03-26T18:35:16.366Z,6.70
2023-03-26T18:40:19.616Z,6.71
2023-03-26T18:45:34.893Z,6.65
2023-03-26T18:50:38.924Z,6.64
2023-03-26T18:55:41.059Z,6.60
2023-03-26T19:00:43.040Z,6.56
2023-03-26T19:05:45.091Z,6.58
2023-03-26T19:10:46.973Z,6.56
2023-03-26T19:15:52.200Z,6.57
2023-03-26T19:21:01.055Z,6.68
2023-03-26T19:26:04.357Z,6.65
2023-03-26T19:31:15.307Z,6.54
2023-03-26T19:36:18.271Z,6.54
2023-03-26T19:41:26.052Z,6.53
2023-03-26T19:46:34.537Z,6.40
2023-03-26T19:52:15.339Z,6.39
2023-03-26T19:57:17.247Z,6.33
2023-03-26T20:02:19.191Z,6.08
2023-03-26T20:07:22.059Z,6.01
2023-03-26T20:12:37.942Z,6.06
2023-03-26T20:17:39.941Z,6.00
2023-03-26T20:22:41.861Z,6.04
2023-03-26T20:27:43.671Z,6.03
2023-03-26T20:32:45.742Z,6.06
2023-03-26T20:37:47.668Z,6.05
2023-03-26T20:42:49.468Z,6.19
2023-03-26T20:47:51.397Z,6.08
2023-03-26T20:52:53.276Z,5.90
2023-03-26T20:57:55.184Z,5.84
2023-03-26T21:02:57.217Z,5.83
2023-03-26T21:07:59.940Z,5.78
2023-03-26T21:13:08.640Z,5.71
2023-03-26T21:18:10.852Z,5.67
2023-03-26T21:23:22.859Z,5.64
2023-03-26T21:28:35.781Z,5.81
2023-03-26T21:33:44.915Z,5.80
2023-03-26T21:38:47.018Z,5.74
2023-03-26T21:43:49.022Z,5.66
2023-03-26T21:48:51.141Z,5.69
2023-03-26T21:53:53.389Z,5.71
2023-03-26T21:59:08.817Z,5.64
2023-03-26T22:04:25.474Z,5.61
2023-03-26T22:14:35.737Z,5.39
2023-03-26T22:19:37.635Z,5.46
2023-03-26T22:24:39.434Z,5.33
2023-03-26T22:29:41.340Z,5.26
2023-03-26T22:34:43.297Z,5.36
2023-03-26T22:39:45.130Z,5.34
2023-03-26T22:44:46.963Z,5.26
2023-03-26T22:49:48.896Z,5.16
2023-03-26T22:54:50.744Z,5.15
2023-03-26T22:59:52.579Z,4.99
2023-03-26T23:04:54.553Z,4.99
2023-03-26T23:09:56.544Z,4.95
2023-03-26T23:14:58.396Z,5.07
2023-03-26T23:20:00.542Z,5.09
2023-03-26T23:25:02.427Z,5.11
2023-03-26T23:30:05.160Z,5.16
2023-03-26T23:35:07.515Z,5.25
2023-03-26T23:40:10.444Z,5.14
2023-03-26T23:45:12.572Z,5.05
2023-03-26T23:50:14.500Z,4.96
2023-03-26T23:55:16.592Z,5.01
